Rockfall
UTM 11U Easting = 46 9626, Northing = 56 97773     Elevation = 22240 m
Note to Users: This site contains raw data and is presented "as is" and in real time. Although reasonable care is exercised in providing this information, inaccuracies or omissions may occur due to the properties of weather and data collection systems. The Avalanche Control Section, responsible for its collection, disclaims all responsibility for the accuracy of the information.
Date Max Temp (deg C) Min Temp (deg C) Rel Hum (%) HS (cm) Wind Dir (1 Hr Avg) Wind Spd (kph) (1 Hr Avg) Max Wind Speed (kph)
2020-04-08 02:00 -8 -9 41 224 NW 5 21
2020-04-08 03:00 -8 -9 39 224 NW 4 19
2020-04-08 04:00 -8 -9 37 224 N 3 15
2020-04-08 05:00 -8 -9 37 224 NE 3 10
2020-04-08 06:00 -9 -9 41 224 NE 6 12
2020-04-08 07:00 -8 -10 40 223 N 3 11
2020-04-08 08:00 -7 -8 38 224 W 1 8
2020-04-08 09:00 -5 -7 35 223 N 2 7
2020-04-08 10:00 -4 -5 31 223 N 2 9
2020-04-08 11:00 -3 -5 32 223 W 3 13
2020-04-08 12:00 -3 -4 30 224 NW 8 16
2020-04-08 13:00 -1 -3 27 224 NW 9 20
2020-04-08 14:00 0 -2 26 223 W 8 22
2020-04-08 15:00 0 -2 28 224 NW 11 25
2020-04-08 16:00 -1 -2 32 223 NW 12 24
2020-04-08 17:00 0 -1 34 223 NW 13 29
2020-04-08 18:00 -1 -3 39 223 NW 10 24
2020-04-08 19:00 -2 -4 43 223 NW 10 22
2020-04-08 20:00 -4 -5 46 223 N 7 19
2020-04-08 21:00 -4 -5 45 223 N 1 7
2020-04-08 22:00 -4 -5 46 223 S 1 1
2020-04-08 23:00 -4 -4 45 223 S 1 1
2020-04-09 00:00 -3 -4 45 223 SE 1 14